Time;durP1;ratioP1;P1;durP2;ratioP2;P2;SDS_P1;SDS_P2;PMS_P1;PMS_P2;Temp;Humidity;BMP_temperature;BMP_pressure;BME280_temperature;BME280_humidity;BME280_pressure;Samples;Min_cycle;Max_cycle;Signal;HPM_P1;HPM_P2
2022/01/10 00:01:57;;;;;;;13.40;7.25;;;;;;;;;;4990201;28;20273;-76
2022/01/10 00:04:22;;;;;;;12.55;6.75;;;;;;;;;;4990858;28;20085;-75
2022/01/10 00:06:48;;;;;;;8.60;5.68;;;;;;;;;;4991787;28;20023;-74
2022/01/10 00:09:13;;;;;;;11.73;5.72;;;;;;;;;;4991167;28;20034;-74
2022/01/10 00:11:39;;;;;;;8.35;4.90;;;;;;;;;;4990535;28;20023;-74
2022/01/10 00:14:04;;;;;;;8.77;4.30;;;;;;;;;;4991592;28;20166;-74
2022/01/10 00:16:29;;;;;;;8.10;4.43;;;;;;;;;;4990688;28;20105;-74
2022/01/10 00:18:55;;;;;;;7.45;4.18;;;;;;;;;;4978727;28;20038;-74
2022/01/10 00:21:20;;;;;;;6.70;4.65;;;;;;;;;;4975039;28;20353;-74
2022/01/10 00:23:45;;;;;;;11.85;4.40;;;;;;;;;;4990873;28;20544;-74
2022/01/10 00:26:10;;;;;;;10.98;4.65;;;;;;;;;;4989134;28;20034;-74
2022/01/10 00:28:36;;;;;;;11.52;4.80;;;;;;;;;;4991356;28;20035;-74
2022/01/10 00:31:01;;;;;;;7.60;4.40;;;;;;;;;;4989910;28;20118;-74
2022/01/10 00:33:26;;;;;;;11.55;4.50;;;;;;;;;;4989344;28;20045;-74
2022/01/10 00:35:52;;;;;;;10.20;4.75;;;;;;;;;;4990877;28;20041;-74
2022/01/10 00:38:17;;;;;;;11.00;4.60;;;;;;;;;;4988233;28;20559;-74
2022/01/10 00:40:42;;;;;;;12.93;4.32;;;;;;;;;;4990632;28;20026;-74
2022/01/10 00:43:16;;;;;;;7.20;4.15;;;;;;;;;;4989820;28;20114;-74
2022/01/10 00:45:42;;;;;;;9.65;3.78;;;;;;;;;;4990441;28;20124;-74
2022/01/10 00:48:07;;;;;;;7.50;3.88;;;;;;;;;;4989725;28;20058;-74
2022/01/10 00:50:33;;;;;;;8.68;4.40;;;;;;;;;;4989078;28;20058;-74
2022/01/10 00:52:58;;;;;;;12.93;4.45;;;;;;;;;;4989746;28;20591;-74
2022/01/10 00:55:24;;;;;;;10.02;4.32;;;;;;;;;;4990058;28;20038;-74
2022/01/10 00:57:49;;;;;;;8.23;4.15;;;;;;;;;;4990628;28;20416;-74
2022/01/10 01:00:16;;;;;;;7.00;3.75;;;;;;;;;;4989340;28;20034;-74
2022/01/10 01:02:43;;;;;;;9.07;3.95;;;;;;;;;;4990586;28;20132;-74
2022/01/10 01:05:11;;;;;;;9.25;4.03;;;;;;;;;;4990500;28;20385;-74
2022/01/10 01:07:37;;;;;;;9.02;4.32;;;;;;;;;;4989249;28;20030;-74
2022/01/10 01:13:03;;;;;;;11.77;4.13;;;;;;;;;;4988629;28;20766;-74
2022/01/10 01:15:34;;;;;;;10.90;5.50;;;;;;;;;;4971205;28;20421;-74
2022/01/10 01:25:51;;;;;;;12.35;4.68;;;;;;;;;;4989288;28;20057;-74
2022/01/10 01:28:18;;;;;;;10.25;4.55;;;;;;;;;;4989922;28;20468;-74
2022/01/10 01:30:43;;;;;;;9.30;4.93;;;;;;;;;;4990235;28;20045;-74
2022/01/10 01:33:09;;;;;;;8.48;4.85;;;;;;;;;;4988777;28;20022;-74
2022/01/10 01:35:37;;;;;;;8.68;5.50;;;;;;;;;;4990294;28;20026;-74
2022/01/10 01:38:02;;;;;;;5.30;3.97;;;;;;;;;;4988902;28;20124;-74
2022/01/10 01:40:30;;;;;;;7.72;4.53;;;;;;;;;;4989269;28;20086;-74
2022/01/10 01:42:56;;;;;;;11.65;5.18;;;;;;;;;;4989630;28;20092;-74
2022/01/10 01:45:41;;;;;;;8.80;4.97;;;;;;;;;;4990003;28;20022;-74
2022/01/10 01:48:07;;;;;;;13.27;5.30;;;;;;;;;;4987612;28;20097;-74
2022/01/10 01:50:33;;;;;;;8.05;4.50;;;;;;;;;;4989926;28;20030;-74
2022/01/10 01:52:59;;;;;;;8.27;4.90;;;;;;;;;;4987981;28;20042;-74
2022/01/10 01:55:26;;;;;;;9.82;4.75;;;;;;;;;;4989510;28;20046;-74
2022/01/10 01:57:51;;;;;;;8.30;4.68;;;;;;;;;;4988496;28;20042;-74
2022/01/10 02:00:19;;;;;;;10.40;5.18;;;;;;;;;;4989977;28;20125;-74
2022/01/10 02:02:46;;;;;;;10.57;5.55;;;;;;;;;;4989673;28;20026;-74
2022/01/10 02:05:11;;;;;;;11.48;5.10;;;;;;;;;;4989830;28;20022;-74
2022/01/10 02:07:37;;;;;;;10.15;5.03;;;;;;;;;;5014876;22;20054;-76
2022/01/10 02:10:04;;;;;;;10.40;6.13;;;;;;;;;;5023836;28;20542;-75
2022/01/10 02:12:29;;;;;;;9.75;5.60;;;;;;;;;;5009757;28;20026;-75
2022/01/10 02:14:55;;;;;;;15.95;6.00;;;;;;;;;;5009210;28;20025;-75
2022/01/10 02:17:23;;;;;;;11.68;6.18;;;;;;;;;;5026408;28;20094;-76
2022/01/10 02:19:58;;;;;;;12.77;6.13;;;;;;;;;;5029427;28;20036;-76
2022/01/10 02:22:24;;;;;;;15.05;6.45;;;;;;;;;;5019540;28;20375;-76
2022/01/10 02:24:49;;;;;;;27.88;10.38;;;;;;;;;;5017009;28;20037;-76
2022/01/10 02:27:14;;;;;;;21.35;8.88;;;;;;;;;;5008397;28;20037;-75
2022/01/10 02:29:40;;;;;;;19.65;8.45;;;;;;;;;;5009266;28;20121;-76
2022/01/10 02:32:06;;;;;;;18.25;7.53;;;;;;;;;;5017091;28;20433;-75
2022/01/10 02:34:31;;;;;;;15.77;7.38;;;;;;;;;;5024546;28;20466;-74
2022/01/10 02:36:58;;;;;;;13.15;6.22;;;;;;;;;;5011774;28;20109;-75
2022/01/10 02:39:24;;;;;;;10.48;6.13;;;;;;;;;;5009271;28;20026;-76
2022/01/10 02:41:49;;;;;;;9.27;5.13;;;;;;;;;;5008530;28;20525;-75
2022/01/10 02:44:16;;;;;;;10.73;5.95;;;;;;;;;;5018600;28;20029;-75
2022/01/10 02:46:44;;;;;;;10.57;5.88;;;;;;;;;;5014501;28;20026;-74
2022/01/10 02:49:14;;;;;;;10.93;5.80;;;;;;;;;;5026122;28;20034;-76
2022/01/10 02:51:40;;;;;;;9.40;6.00;;;;;;;;;;5027285;28;20017;-76
2022/01/10 02:54:07;;;;;;;13.18;6.25;;;;;;;;;;5017786;28;20037;-75
2022/01/10 02:56:32;;;;;;;8.13;5.07;;;;;;;;;;5022537;28;20092;-75
2022/01/10 02:58:58;;;;;;;12.50;5.68;;;;;;;;;;5028358;28;20537;-75
2022/01/10 03:01:23;;;;;;;12.00;5.80;;;;;;;;;;5030677;28;20021;-76
2022/01/10 03:03:48;;;;;;;12.75;6.32;;;;;;;;;;5027844;28;20794;-75
2022/01/10 03:06:14;;;;;;;10.02;5.75;;;;;;;;;;5027079;28;20060;-75
2022/01/10 03:08:39;;;;;;;10.88;5.95;;;;;;;;;;5031329;28;20033;-76
2022/01/10 03:11:04;;;;;;;11.07;5.43;;;;;;;;;;5015995;28;20329;-75
2022/01/10 03:13:30;;;;;;;12.13;5.63;;;;;;;;;;5012426;28;20053;-75
2022/01/10 03:15:55;;;;;;;8.88;5.15;;;;;;;;;;5012466;28;20029;-75
2022/01/10 03:18:20;;;;;;;10.75;6.32;;;;;;;;;;5021093;28;20036;-75
2022/01/10 03:20:46;;;;;;;9.20;5.53;;;;;;;;;;5012484;28;20384;-74
2022/01/10 03:23:11;;;;;;;11.40;5.65;;;;;;;;;;5028733;28;20458;-74
2022/01/10 03:25:37;;;;;;;12.55;5.40;;;;;;;;;;5025689;28;20115;-75
2022/01/10 03:28:02;;;;;;;11.90;5.90;;;;;;;;;;5014016;28;20285;-76
2022/01/10 03:30:28;;;;;;;13.25;6.25;;;;;;;;;;5020629;28;20022;-75
2022/01/10 03:32:56;;;;;;;8.68;5.18;;;;;;;;;;5024120;28;20033;-75
2022/01/10 03:35:21;;;;;;;11.52;6.18;;;;;;;;;;5013893;28;20041;-74
2022/01/10 03:37:46;;;;;;;14.18;6.25;;;;;;;;;;5013544;28;20022;-76
2022/01/10 03:40:12;;;;;;;10.45;5.93;;;;;;;;;;5012905;28;20026;-75
2022/01/10 03:42:37;;;;;;;10.93;6.15;;;;;;;;;;5029886;28;20240;-75
2022/01/10 03:45:05;;;;;;;13.40;6.38;;;;;;;;;;5027634;28;20026;-75
2022/01/10 03:47:30;;;;;;;10.20;5.72;;;;;;;;;;5031459;28;20521;-76
2022/01/10 03:49:55;;;;;;;10.60;5.68;;;;;;;;;;5029373;28;20038;-75
2022/01/10 03:52:22;;;;;;;8.50;5.15;;;;;;;;;;5029720;28;20035;-75
2022/01/10 03:54:48;;;;;;;11.98;6.38;;;;;;;;;;5020926;28;20404;-75
2022/01/10 03:57:13;;;;;;;10.52;5.45;;;;;;;;;;5030831;28;20025;-75
2022/01/10 03:59:39;;;;;;;15.25;6.43;;;;;;;;;;5018267;28;20660;-75
2022/01/10 04:02:04;;;;;;;9.30;5.60;;;;;;;;;;5011647;28;20112;-75
2022/01/10 04:04:30;;;;;;;8.07;5.10;;;;;;;;;;5031338;28;20078;-75
2022/01/10 04:06:56;;;;;;;10.10;5.45;;;;;;;;;;5024553;28;20478;-75
2022/01/10 04:09:21;;;;;;;7.47;4.85;;;;;;;;;;5012771;28;20030;-75
2022/01/10 04:11:47;;;;;;;11.55;5.45;;;;;;;;;;5031084;28;20029;-74
2022/01/10 04:14:13;;;;;;;9.13;4.93;;;;;;;;;;5027878;28;20433;-74
2022/01/10 04:16:39;;;;;;;8.25;4.70;;;;;;;;;;5021937;28;20120;-74
2022/01/10 04:19:05;;;;;;;8.43;4.25;;;;;;;;;;5030864;28;20076;-75
2022/01/10 04:21:30;;;;;;;7.20;4.75;;;;;;;;;;5022147;28;20430;-75
2022/01/10 04:23:56;;;;;;;8.50;4.15;;;;;;;;;;5013759;28;20017;-75
2022/01/10 04:26:21;;;;;;;8.13;4.85;;;;;;;;;;5029844;28;20525;-74
2022/01/10 04:28:46;;;;;;;8.00;4.28;;;;;;;;;;5026540;28;20036;-75
2022/01/10 04:31:12;;;;;;;9.93;4.63;;;;;;;;;;5029095;28;20025;-75
2022/01/10 04:33:38;;;;;;;8.57;4.32;;;;;;;;;;5011295;28;20029;-75
2022/01/10 04:36:04;;;;;;;7.68;4.60;;;;;;;;;;5023760;28;20088;-75
2022/01/10 04:38:29;;;;;;;8.27;4.97;;;;;;;;;;5021872;28;20037;-74
2022/01/10 04:40:55;;;;;;;9.75;5.07;;;;;;;;;;5027644;28;20029;-75
2022/01/10 04:43:21;;;;;;;7.97;5.25;;;;;;;;;;5028817;28;20060;-75
2022/01/10 04:45:47;;;;;;;9.70;5.45;;;;;;;;;;5012003;28;20494;-75
2022/01/10 04:48:15;;;;;;;9.80;5.90;;;;;;;;;;5019769;28;20036;-75
2022/01/10 04:51:11;;;;;;;10.38;5.82;;;;;;;;;;5030557;28;20033;-75
2022/01/10 04:53:41;;;;;;;9.38;5.57;;;;;;;;;;5017817;28;20128;-75
2022/01/10 04:56:07;;;;;;;7.85;4.82;;;;;;;;;;5029254;28;20034;-75
2022/01/10 04:58:34;;;;;;;8.65;4.50;;;;;;;;;;5030610;28;20018;-74
2022/01/10 05:00:59;;;;;;;9.48;4.55;;;;;;;;;;5021462;28;20029;-75
2022/01/10 05:03:24;;;;;;;12.98;5.03;;;;;;;;;;5030548;28;20028;-75
2022/01/10 05:05:53;;;;;;;6.18;3.95;;;;;;;;;;5021571;28;20496;-75
2022/01/10 05:08:20;;;;;;;9.05;4.63;;;;;;;;;;5017651;28;20101;-76
2022/01/10 05:10:46;;;;;;;10.20;4.88;;;;;;;;;;5022353;28;20053;-75
2022/01/10 05:13:11;;;;;;;8.77;4.63;;;;;;;;;;5011144;28;20614;-75
2022/01/10 05:15:37;;;;;;;8.40;4.60;;;;;;;;;;5013231;28;20058;-75
2022/01/10 05:18:02;;;;;;;10.70;4.47;;;;;;;;;;5007016;28;20032;-74
2022/01/10 05:20:27;;;;;;;10.40;4.35;;;;;;;;;;5011146;28;20091;-74
2022/01/10 05:22:53;;;;;;;7.63;4.18;;;;;;;;;;5012806;28;20052;-75
2022/01/10 05:25:18;;;;;;;7.60;4.57;;;;;;;;;;5006587;28;20026;-74
2022/01/10 05:27:43;;;;;;;7.47;4.28;;;;;;;;;;5009222;28;20466;-75
2022/01/10 05:30:09;;;;;;;6.85;4.22;;;;;;;;;;5016732;28;20506;-76
2022/01/10 05:32:35;;;;;;;8.35;4.75;;;;;;;;;;5009160;28;20069;-76
2022/01/10 05:35:00;;;;;;;7.70;4.10;;;;;;;;;;5010836;28;20659;-75
2022/01/10 05:37:25;;;;;;;10.23;4.70;;;;;;;;;;5015845;28;20026;-73
2022/01/10 05:39:51;;;;;;;9.57;4.30;;;;;;;;;;5009694;28;20026;-75
2022/01/10 05:42:18;;;;;;;7.15;4.30;;;;;;;;;;5013323;28;20525;-74
2022/01/10 05:44:43;;;;;;;7.65;3.72;;;;;;;;;;5019383;28;20036;-75
2022/01/10 05:47:08;;;;;;;10.02;4.20;;;;;;;;;;5016980;28;20403;-75
2022/01/10 05:49:37;;;;;;;8.95;4.20;;;;;;;;;;5010324;28;20032;-75
2022/01/10 05:52:02;;;;;;;8.82;4.20;;;;;;;;;;5017897;28;20479;-75
2022/01/10 05:54:31;;;;;;;9.63;4.28;;;;;;;;;;5027510;28;20399;-75
2022/01/10 05:56:57;;;;;;;9.25;4.10;;;;;;;;;;5020462;28;20058;-75
2022/01/10 05:59:22;;;;;;;7.20;4.30;;;;;;;;;;5012166;28;20056;-74
2022/01/10 06:01:48;;;;;;;9.05;4.07;;;;;;;;;;5020433;28;20552;-75
2022/01/10 06:04:13;;;;;;;9.52;4.25;;;;;;;;;;5025770;28;20022;-75
2022/01/10 06:06:38;;;;;;;6.10;4.10;;;;;;;;;;5016027;28;20382;-75
2022/01/10 06:09:04;;;;;;;9.95;4.65;;;;;;;;;;5017729;28;20029;-75
2022/01/10 06:11:29;;;;;;;7.60;4.10;;;;;;;;;;5029296;28;20498;-75
2022/01/10 06:13:54;;;;;;;7.65;4.35;;;;;;;;;;5018995;28;20431;-75
2022/01/10 06:16:20;;;;;;;6.97;4.38;;;;;;;;;;5013447;28;20025;-75
2022/01/10 06:18:45;;;;;;;5.63;4.07;;;;;;;;;;5027368;28;20529;-75
2022/01/10 06:21:10;;;;;;;7.00;4.35;;;;;;;;;;5029235;28;20065;-75
2022/01/10 06:23:35;;;;;;;9.48;4.55;;;;;;;;;;5026254;28;20048;-75
2022/01/10 06:26:01;;;;;;;8.23;4.88;;;;;;;;;;5013275;28;20030;-75
2022/01/10 06:28:26;;;;;;;10.00;4.53;;;;;;;;;;5007013;28;20391;-75
2022/01/10 06:30:51;;;;;;;8.57;4.63;;;;;;;;;;5008423;28;20053;-76
2022/01/10 06:33:17;;;;;;;8.27;4.60;;;;;;;;;;5011398;28;20034;-76
2022/01/10 06:35:42;;;;;;;11.25;4.82;;;;;;;;;;5011504;28;20100;-76
2022/01/10 06:38:07;;;;;;;8.80;4.93;;;;;;;;;;5013113;28;20457;-75
2022/01/10 06:40:32;;;;;;;9.52;4.60;;;;;;;;;;5013267;28;20034;-76
2022/01/10 06:42:58;;;;;;;10.55;4.82;;;;;;;;;;5012097;28;20021;-75
2022/01/10 06:45:23;;;;;;;8.60;4.80;;;;;;;;;;5012938;28;20472;-76
2022/01/10 06:47:49;;;;;;;11.50;5.82;;;;;;;;;;5013552;28;20108;-73
2022/01/10 06:50:15;;;;;;;8.55;5.20;;;;;;;;;;5012927;28;20040;-73
2022/01/10 06:52:41;;;;;;;8.13;4.70;;;;;;;;;;5012588;28;20448;-74
2022/01/10 06:55:06;;;;;;;9.25;4.57;;;;;;;;;;5012593;28;20105;-74
2022/01/10 06:57:32;;;;;;;9.23;4.43;;;;;;;;;;5011347;28;20029;-74
2022/01/10 06:59:57;;;;;;;8.20;4.93;;;;;;;;;;5011492;28;20061;-74
2022/01/10 07:02:22;;;;;;;7.72;3.83;;;;;;;;;;5011997;28;20022;-73
2022/01/10 07:04:48;;;;;;;8.13;3.97;;;;;;;;;;5017198;28;20026;-75
2022/01/10 07:07:13;;;;;;;7.00;4.75;;;;;;;;;;5013422;28;20026;-76
2022/01/10 07:09:38;;;;;;;10.10;4.22;;;;;;;;;;5010517;28;20057;-75
2022/01/10 07:12:05;;;;;;;12.00;5.00;;;;;;;;;;5006540;28;20552;-73
2022/01/10 07:14:33;;;;;;;7.32;4.22;;;;;;;;;;5005217;28;20522;-74
2022/01/10 07:16:58;;;;;;;11.82;4.97;;;;;;;;;;5004118;28;20034;-75
2022/01/10 07:19:23;;;;;;;9.40;4.50;;;;;;;;;;5008726;28;20529;-72
2022/01/10 07:21:49;;;;;;;8.98;4.65;;;;;;;;;;5010691;28;20037;-76
2022/01/10 07:24:14;;;;;;;13.90;6.32;;;;;;;;;;5007678;28;20117;-75
2022/01/10 07:26:39;;;;;;;7.80;4.88;;;;;;;;;;5009261;28;20172;-74
2022/01/10 07:29:07;;;;;;;7.88;4.57;;;;;;;;;;5007641;28;20498;-75
2022/01/10 07:31:32;;;;;;;10.15;4.88;;;;;;;;;;5016321;28;20532;-75
2022/01/10 07:33:58;;;;;;;14.35;4.70;;;;;;;;;;5028347;28;20033;-73
2022/01/10 07:36:23;;;;;;;10.10;4.68;;;;;;;;;;5004205;28;20180;-75
2022/01/10 07:38:49;;;;;;;10.73;4.97;;;;;;;;;;5002210;28;20045;-73
2022/01/10 07:41:14;;;;;;;10.57;5.63;;;;;;;;;;5013945;28;20233;-75
2022/01/10 07:43:40;;;;;;;9.90;5.70;;;;;;;;;;5011617;28;20037;-75
2022/01/10 07:46:05;;;;;;;11.05;5.80;;;;;;;;;;5008169;28;20030;-73
2022/01/10 07:48:35;;;;;;;12.35;6.13;;;;;;;;;;5008257;28;20714;-75
2022/01/10 07:51:00;;;;;;;13.10;6.32;;;;;;;;;;5007837;28;20447;-74
2022/01/10 07:53:26;;;;;;;12.55;6.82;;;;;;;;;;5008250;28;20049;-72
2022/01/10 07:55:51;;;;;;;13.52;7.15;;;;;;;;;;5007241;28;20069;-73
2022/01/10 07:58:17;;;;;;;16.75;7.90;;;;;;;;;;5007016;28;20041;-74
2022/01/10 08:00:43;;;;;;;16.38;8.35;;;;;;;;;;5008474;28;20037;-75
2022/01/10 08:03:09;;;;;;;14.68;8.52;;;;;;;;;;5008048;28;20395;-74
2022/01/10 08:05:34;;;;;;;12.30;6.75;;;;;;;;;;5007570;28;20100;-74
2022/01/10 08:07:59;;;;;;;11.40;6.03;;;;;;;;;;5037794;23;20478;-77
2022/01/10 08:10:24;;;;;;;18.70;9.32;;;;;;;;;;5047046;28;20057;-74
2022/01/10 08:12:50;;;;;;;17.02;8.10;;;;;;;;;;5048114;28;20029;-76
2022/01/10 08:15:15;;;;;;;18.50;7.40;;;;;;;;;;5046522;28;20345;-73
2022/01/10 08:17:41;;;;;;;15.27;6.28;;;;;;;;;;5044212;28;20063;-77
2022/01/10 08:20:08;;;;;;;13.48;6.82;;;;;;;;;;5027335;28;20056;-76
2022/01/10 08:22:33;;;;;;;12.73;6.13;;;;;;;;;;5026484;28;20037;-76
2022/01/10 08:24:58;;;;;;;14.35;6.18;;;;;;;;;;5025769;28;20025;-76
2022/01/10 08:27:24;;;;;;;14.68;6.32;;;;;;;;;;5026221;28;20029;-76
2022/01/10 08:29:49;;;;;;;13.93;6.10;;;;;;;;;;5034049;28;20052;-75
2022/01/10 08:32:15;;;;;;;11.40;6.32;;;;;;;;;;5028239;28;20052;-75
2022/01/10 08:34:41;;;;;;;13.52;6.65;;;;;;;;;;5027100;28;20088;-74
2022/01/10 08:37:07;;;;;;;14.38;6.88;;;;;;;;;;5026409;28;20505;-74
2022/01/10 08:39:32;;;;;;;14.90;6.38;;;;;;;;;;5027787;28;20032;-74
2022/01/10 08:41:57;;;;;;;13.35;6.65;;;;;;;;;;5026616;28;20033;-75
2022/01/10 08:44:23;;;;;;;14.52;6.82;;;;;;;;;;5025860;28;20031;-74
2022/01/10 08:46:48;;;;;;;15.75;7.72;;;;;;;;;;5026860;28;20041;-74
2022/01/10 08:49:14;;;;;;;12.73;6.90;;;;;;;;;;5026866;28;20118;-75
2022/01/10 08:51:42;;;;;;;15.00;6.63;;;;;;;;;;5026872;28;20513;-74
2022/01/10 08:54:09;;;;;;;13.68;6.45;;;;;;;;;;5026487;28;20035;-74
2022/01/10 08:56:35;;;;;;;14.18;7.10;;;;;;;;;;5025909;28;20025;-74
2022/01/10 08:59:01;;;;;;;15.15;6.95;;;;;;;;;;5026930;28;20024;-74
2022/01/10 09:01:27;;;;;;;16.88;6.85;;;;;;;;;;5026195;28;20092;-74
2022/01/10 09:03:53;;;;;;;15.93;7.35;;;;;;;;;;5026488;28;20113;-75
2022/01/10 09:06:18;;;;;;;16.08;7.35;;;;;;;;;;5026509;28;20395;-74
2022/01/10 09:08:47;;;;;;;15.30;7.10;;;;;;;;;;5026192;28;20039;-75
2022/01/10 09:11:12;;;;;;;21.13;9.07;;;;;;;;;;5025428;28;20033;-74
2022/01/10 09:13:38;;;;;;;18.98;8.32;;;;;;;;;;5027029;28;20067;-74
2022/01/10 09:16:03;;;;;;;12.00;6.63;;;;;;;;;;5024989;28;20025;-74
2022/01/10 09:18:29;;;;;;;18.35;6.35;;;;;;;;;;5021747;28;20025;-75
2022/01/10 09:20:55;;;;;;;16.77;6.18;;;;;;;;;;5025859;28;20041;-75
2022/01/10 09:23:21;;;;;;;20.80;7.22;;;;;;;;;;5026060;28;20132;-75
2022/01/10 09:25:47;;;;;;;16.25;7.22;;;;;;;;;;5025690;28;20029;-74
2022/01/10 09:28:12;;;;;;;16.63;7.00;;;;;;;;;;5026386;28;20562;-75
2022/01/10 09:30:37;;;;;;;17.58;8.10;;;;;;;;;;5025466;28;20026;-74
2022/01/10 09:33:03;;;;;;;16.02;6.68;;;;;;;;;;5026071;28;20044;-76
2022/01/10 09:35:28;;;;;;;14.88;6.82;;;;;;;;;;5025746;28;20024;-75
2022/01/10 09:37:53;;;;;;;14.60;6.90;;;;;;;;;;5025370;28;20113;-75
2022/01/10 09:40:19;;;;;;;11.95;5.75;;;;;;;;;;5012671;28;20513;-76
2022/01/10 09:42:45;;;;;;;9.52;4.95;;;;;;;;;;5025772;28;20029;-76
2022/01/10 09:45:11;;;;;;;9.65;4.78;;;;;;;;;;5025392;28;20029;-76
2022/01/10 09:47:36;;;;;;;9.50;4.45;;;;;;;;;;5025777;28;20095;-75
2022/01/10 09:50:03;;;;;;;11.50;5.70;;;;;;;;;;5024054;28;20033;-75
2022/01/10 09:52:29;;;;;;;11.88;5.85;;;;;;;;;;5026139;28;20026;-76
2022/01/10 09:54:54;;;;;;;10.80;6.18;;;;;;;;;;5025369;28;20032;-75
2022/01/10 09:57:21;;;;;;;9.15;6.05;;;;;;;;;;5024963;28;20026;-76
2022/01/10 09:59:47;;;;;;;10.35;5.10;;;;;;;;;;5026057;28;20029;-77
2022/01/10 10:02:15;;;;;;;12.18;6.13;;;;;;;;;;5025286;28;20629;-77
2022/01/10 10:04:41;;;;;;;12.38;6.07;;;;;;;;;;5025344;28;20053;-76
2022/01/10 10:07:06;;;;;;;11.65;6.10;;;;;;;;;;5025557;28;20034;-76
2022/01/10 10:09:33;;;;;;;12.45;6.43;;;;;;;;;;5025017;28;20039;-77
2022/01/10 10:11:59;;;;;;;11.43;5.88;;;;;;;;;;5025201;28;20100;-76
2022/01/10 10:14:26;;;;;;;13.52;7.22;;;;;;;;;;5025285;28;20117;-77
2022/01/10 10:16:54;;;;;;;10.63;5.65;;;;;;;;;;5025200;28;20108;-76
2022/01/10 10:19:26;;;;;;;10.80;5.28;;;;;;;;;;5025405;28;20025;-76
2022/01/10 10:21:53;;;;;;;11.80;5.47;;;;;;;;;;5025544;28;20060;-76
2022/01/10 10:24:19;;;;;;;13.65;5.50;;;;;;;;;;5025931;28;20489;-76
2022/01/10 10:26:45;;;;;;;9.63;5.28;;;;;;;;;;5025284;28;20057;-76
2022/01/10 10:29:14;;;;;;;9.43;5.38;;;;;;;;;;5025630;28;20029;-75
2022/01/10 10:31:45;;;;;;;11.75;6.15;;;;;;;;;;5025544;28;20149;-75
2022/01/10 10:34:17;;;;;;;14.68;6.63;;;;;;;;;;5025209;28;20026;-73
2022/01/10 10:36:42;;;;;;;10.30;5.72;;;;;;;;;;5025059;28;20045;-75
2022/01/10 10:39:10;;;;;;;11.20;5.55;;;;;;;;;;5023875;28;20057;-75
2022/01/10 10:41:37;;;;;;;10.98;5.72;;;;;;;;;;5024632;28;20057;-75
2022/01/10 10:44:03;;;;;;;12.88;6.18;;;;;;;;;;5024850;28;20021;-78
2022/01/10 10:46:29;;;;;;;13.20;6.43;;;;;;;;;;5025688;28;20032;-75
2022/01/10 10:49:03;;;;;;;13.85;6.07;;;;;;;;;;5024510;28;20033;-75
2022/01/10 10:51:34;;;;;;;8.63;4.97;;;;;;;;;;5025141;28;20029;-77
2022/01/10 10:54:05;;;;;;;9.23;5.47;;;;;;;;;;5024492;28;20029;-78
2022/01/10 10:56:35;;;;;;;10.52;5.05;;;;;;;;;;5025962;28;20386;-74
2022/01/10 10:59:01;;;;;;;13.55;5.18;;;;;;;;;;5025453;28;20017;-73
2022/01/10 11:01:26;;;;;;;10.75;5.43;;;;;;;;;;5019200;28;20049;-75
2022/01/10 11:03:53;;;;;;;10.70;5.47;;;;;;;;;;5027137;28;20049;-73
2022/01/10 11:06:18;;;;;;;9.82;5.80;;;;;;;;;;5026941;28;20028;-74
2022/01/10 11:08:44;;;;;;;10.27;5.10;;;;;;;;;;5029109;28;20029;-74
2022/01/10 11:11:15;;;;;;;12.77;5.95;;;;;;;;;;5029100;28;20406;-74
2022/01/10 11:13:41;;;;;;;13.20;5.45;;;;;;;;;;5007856;28;20488;-75
2022/01/10 11:16:09;;;;;;;8.60;4.95;;;;;;;;;;5009393;28;20440;-74
2022/01/10 11:18:34;;;;;;;8.85;5.05;;;;;;;;;;5009560;28;20060;-75
2022/01/10 11:20:59;;;;;;;12.25;5.55;;;;;;;;;;5013036;28;20054;-75
2022/01/10 11:23:26;;;;;;;10.85;5.50;;;;;;;;;;5012781;28;20025;-75
2022/01/10 11:25:51;;;;;;;18.98;9.90;;;;;;;;;;5012656;28;20021;-74
2022/01/10 11:28:25;;;;;;;55.80;21.52;;;;;;;;;;5012557;28;20510;-75
2022/01/10 11:30:53;;;;;;;26.45;10.98;;;;;;;;;;5012908;28;20022;-75
2022/01/10 11:33:26;;;;;;;13.85;6.30;;;;;;;;;;5012448;28;20127;-74
2022/01/10 11:35:53;;;;;;;;;;;;;;;;;;5012954;28;20438;-74
2022/01/10 11:38:34;;;;;;;12.65;6.05;;;;;;;;;;5012508;28;19958;-75
2022/01/10 11:41:06;;;;;;;14.10;6.25;;;;;;;;;;5012739;28;20029;-75
2022/01/10 11:44:08;;;;;;;15.55;7.65;;;;;;;;;;5012477;28;20442;-74
2022/01/10 11:46:36;;;;;;;13.07;6.80;;;;;;;;;;5012716;28;20026;-74
2022/01/10 11:49:25;;;;;;;13.30;7.00;;;;;;;;;;5012331;28;20108;-74
2022/01/10 11:51:51;;;;;;;12.30;6.75;;;;;;;;;;5012476;28;20026;-74
2022/01/10 11:54:26;;;;;;;14.38;7.70;;;;;;;;;;5011926;28;20032;-75
2022/01/10 11:56:57;;;;;;;15.15;6.93;;;;;;;;;;5012475;28;20029;-74
2022/01/10 11:59:34;;;;;;;11.98;6.07;;;;;;;;;;5012162;28;20056;-75
2022/01/10 12:02:04;;;;;;;12.95;6.30;;;;;;;;;;5012597;28;20602;-74
2022/01/10 12:04:40;;;;;;;13.95;5.50;;;;;;;;;;5011993;28;20022;-76
2022/01/10 12:07:08;;;;;;;11.73;5.63;;;;;;;;;;5012159;28;20057;-75
2022/01/10 12:09:34;;;;;;;11.93;6.07;;;;;;;;;;5012079;28;20076;-77
2022/01/10 12:12:01;;;;;;;15.23;8.18;;;;;;;;;;5011907;28;20025;-74
2022/01/10 12:14:27;;;;;;;16.00;9.88;;;;;;;;;;5011745;28;20399;-74
2022/01/10 12:16:54;;;;;;;12.50;7.38;;;;;;;;;;5012198;28;20026;-75
2022/01/10 12:19:20;;;;;;;8.43;6.03;;;;;;;;;;5011601;28;20029;-75
2022/01/10 12:21:46;;;;;;;13.98;7.30;;;;;;;;;;5011829;28;20065;-74
2022/01/10 12:24:12;;;;;;;15.57;7.95;;;;;;;;;;5011794;28;20376;-74
2022/01/10 12:26:38;;;;;;;13.05;6.88;;;;;;;;;;5011867;28;20026;-75
2022/01/10 12:29:06;;;;;;;14.27;6.47;;;;;;;;;;5011438;28;20665;-74
2022/01/10 12:31:33;;;;;;;12.15;6.30;;;;;;;;;;5010720;28;20022;-75
2022/01/10 12:33:59;;;;;;;11.18;5.75;;;;;;;;;;5011349;28;20105;-74
2022/01/10 12:36:27;;;;;;;12.13;7.25;;;;;;;;;;5023585;28;20030;-75
2022/01/10 12:39:01;;;;;;;19.38;9.75;;;;;;;;;;5029543;28;20160;-74
2022/01/10 12:41:28;;;;;;;31.50;15.35;;;;;;;;;;5011139;28;20026;-75
2022/01/10 12:43:54;;;;;;;20.88;10.50;;;;;;;;;;5021304;28;20029;-73
2022/01/10 12:46:22;;;;;;;14.27;7.43;;;;;;;;;;5031435;28;20029;-74
2022/01/10 12:48:50;;;;;;;13.45;6.80;;;;;;;;;;5031164;28;20025;-74
2022/01/10 12:51:17;;;;;;;12.90;7.22;;;;;;;;;;5029611;28;20029;-77
2022/01/10 12:53:47;;;;;;;13.20;7.00;;;;;;;;;;5030754;28;20033;-77
2022/01/10 12:56:14;;;;;;;15.85;7.05;;;;;;;;;;5031183;28;20112;-74
2022/01/10 12:58:40;;;;;;;18.00;8.00;;;;;;;;;;5030883;28;20025;-74
2022/01/10 13:01:11;;;;;;;17.45;8.60;;;;;;;;;;5030240;28;20469;-74
2022/01/10 13:03:37;;;;;;;20.52;11.57;;;;;;;;;;5030726;28;20422;-75
2022/01/10 13:06:03;;;;;;;24.13;12.90;;;;;;;;;;5030344;28;20021;-74
2022/01/10 13:08:35;;;;;;;14.88;8.23;;;;;;;;;;5030460;28;20037;-74
2022/01/10 13:11:00;;;;;;;15.32;7.35;;;;;;;;;;5029740;28;20104;-74
2022/01/10 13:13:25;;;;;;;14.32;8.38;;;;;;;;;;5030504;28;20466;-74
2022/01/10 13:15:51;;;;;;;15.15;7.82;;;;;;;;;;5029523;28;20034;-74
2022/01/10 13:18:17;;;;;;;12.40;7.40;;;;;;;;;;5030389;28;20025;-74
2022/01/10 13:20:43;;;;;;;11.95;6.10;;;;;;;;;;5030301;28;20100;-74
2022/01/10 13:23:11;;;;;;;13.68;6.47;;;;;;;;;;5030300;28;20104;-73
2022/01/10 13:25:41;;;;;;;12.15;6.38;;;;;;;;;;5028589;28;20471;-73
2022/01/10 13:28:08;;;;;;;15.00;6.90;;;;;;;;;;5029704;28;20407;-76
2022/01/10 13:30:36;;;;;;;13.13;7.07;;;;;;;;;;5030014;28;20025;-75
2022/01/10 13:33:09;;;;;;;16.38;9.38;;;;;;;;;;5029742;28;20064;-73
2022/01/10 13:35:36;;;;;;;;;;;;;;;;;;5029507;28;20025;-73
2022/01/10 13:38:11;;;;;;;15.38;8.10;;;;;;;;;;5028928;28;19912;-75
2022/01/10 13:40:44;;;;;;;18.20;9.27;;;;;;;;;;5028749;28;20498;-76
2022/01/10 13:43:13;;;;;;;17.35;8.32;;;;;;;;;;5026223;28;20465;-74
2022/01/10 13:45:53;;;;;;;18.25;8.77;;;;;;;;;;5028610;28;20021;-75
2022/01/10 13:48:31;;;;;;;25.17;9.15;;;;;;;;;;5029226;28;20117;-74
2022/01/10 13:51:12;;;;;;;16.70;8.75;;;;;;;;;;5029016;28;20025;-75
2022/01/10 13:53:43;;;;;;;18.00;9.15;;;;;;;;;;5029447;28;20030;-74
2022/01/10 13:56:28;;;;;;;18.92;8.63;;;;;;;;;;5029060;28;20096;-75
2022/01/10 13:58:58;;;;;;;12.05;7.25;;;;;;;;;;5029197;28;20080;-74
2022/01/10 14:01:27;;;;;;;14.73;8.68;;;;;;;;;;5028742;28;20029;-74
2022/01/10 14:03:54;;;;;;;21.75;9.80;;;;;;;;;;5029185;28;20099;-73
2022/01/10 14:06:25;;;;;;;11.80;6.28;;;;;;;;;;5028812;28;20025;-73
2022/01/10 14:08:58;;;;;;;12.95;7.25;;;;;;;;;;5042379;22;20069;-76
2022/01/10 14:11:28;;;;;;;13.10;6.78;;;;;;;;;;5008993;28;20030;-76
2022/01/10 14:14:01;;;;;;;16.83;8.43;;;;;;;;;;5008742;28;20397;-75
2022/01/10 14:16:34;;;;;;;20.42;10.15;;;;;;;;;;5008763;28;20037;-76
2022/01/10 14:19:01;;;;;;;16.88;8.38;;;;;;;;;;5008849;28;20843;-75
2022/01/10 14:21:26;;;;;;;17.65;8.82;;;;;;;;;;5009027;28;20033;-75
2022/01/10 14:23:52;;;;;;;16.98;9.63;;;;;;;;;;5014370;28;20091;-76
2022/01/10 14:26:17;;;;;;;14.18;7.60;;;;;;;;;;5010921;28;20026;-75
2022/01/10 14:28:44;;;;;;;20.48;8.50;;;;;;;;;;5017016;28;20029;-76
2022/01/10 14:31:10;;;;;;;17.48;6.88;;;;;;;;;;5010131;28;20471;-76
2022/01/10 14:33:35;;;;;;;11.95;6.75;;;;;;;;;;5007635;28;20041;-76
2022/01/10 14:36:01;;;;;;;13.30;6.72;;;;;;;;;;5007312;28;20578;-76
2022/01/10 14:38:28;;;;;;;12.77;6.82;;;;;;;;;;5007989;28;20022;-76
2022/01/10 14:40:58;;;;;;;14.05;6.93;;;;;;;;;;5015604;28;20029;-76
2022/01/10 14:43:23;;;;;;;16.27;6.97;;;;;;;;;;5009001;28;20470;-77